sensor_id;sensor_type;location;lat;lon;timestamp;temperature;humidity
41928;DHT22;27616;51.420;6.788;2023-02-11T00:01:36;6.80;99.90
41928;DHT22;27616;51.420;6.788;2023-02-11T00:04:04;6.80;99.90
41928;DHT22;27616;51.420;6.788;2023-02-11T00:06:31;6.80;99.90
41928;DHT22;27616;51.420;6.788;2023-02-11T00:08:57;6.80;99.90
41928;DHT22;27616;51.420;6.788;2023-02-11T00:11:25;6.80;99.90
41928;DHT22;27616;51.420;6.788;2023-02-11T00:13:59;6.80;99.90
41928;DHT22;27616;51.420;6.788;2023-02-11T00:16:25;6.80;99.90
41928;DHT22;27616;51.420;6.788;2023-02-11T00:18:51;6.80;99.90
41928;DHT22;27616;51.420;6.788;2023-02-11T00:21:24;6.80;99.90
41928;DHT22;27616;51.420;6.788;2023-02-11T00:23:50;6.80;99.90
41928;DHT22;27616;51.420;6.788;2023-02-11T00:26:21;6.80;99.90
41928;DHT22;27616;51.420;6.788;2023-02-11T00:28:48;6.90;99.90
41928;DHT22;27616;51.420;6.788;2023-02-11T00:31:17;6.90;99.90
41928;DHT22;27616;51.420;6.788;2023-02-11T00:33:43;6.90;99.90
41928;DHT22;27616;51.420;6.788;2023-02-11T00:36:15;6.80;99.90
41928;DHT22;27616;51.420;6.788;2023-02-11T00:38:45;6.90;99.90
41928;DHT22;27616;51.420;6.788;2023-02-11T00:41:12;6.90;99.90
41928;DHT22;27616;51.420;6.788;2023-02-11T00:43:39;6.80;99.90
41928;DHT22;27616;51.420;6.788;2023-02-11T00:46:05;6.80;99.90
41928;DHT22;27616;51.420;6.788;2023-02-11T00:48:31;6.80;99.90
41928;DHT22;27616;51.420;6.788;2023-02-11T00:50:59;6.90;99.90
41928;DHT22;27616;51.420;6.788;2023-02-11T00:53:25;6.90;99.90
41928;DHT22;27616;51.420;6.788;2023-02-11T00:55:51;6.90;99.90
41928;DHT22;27616;51.420;6.788;2023-02-11T00:58:17;6.90;99.90
41928;DHT22;27616;51.420;6.788;2023-02-11T01:00:42;6.90;99.90
41928;DHT22;27616;51.420;6.788;2023-02-11T01:03:08;6.90;99.90
41928;DHT22;27616;51.420;6.788;2023-02-11T01:05:34;6.90;99.90
41928;DHT22;27616;51.420;6.788;2023-02-11T01:08:00;6.90;99.90
41928;DHT22;27616;51.420;6.788;2023-02-11T01:10:26;6.90;99.90
41928;DHT22;27616;51.420;6.788;2023-02-11T01:12:53;6.80;99.90
41928;DHT22;27616;51.420;6.788;2023-02-11T01:15:20;6.80;99.90
41928;DHT22;27616;51.420;6.788;2023-02-11T01:17:46;6.80;99.90
41928;DHT22;27616;51.420;6.788;2023-02-11T01:20:23;6.80;99.90
41928;DHT22;27616;51.420;6.788;2023-02-11T01:22:49;6.80;99.90
41928;DHT22;27616;51.420;6.788;2023-02-11T01:25:15;6.80;99.90
41928;DHT22;27616;51.420;6.788;2023-02-11T01:27:41;6.80;99.90
41928;DHT22;27616;51.420;6.788;2023-02-11T01:30:08;6.80;99.90
41928;DHT22;27616;51.420;6.788;2023-02-11T01:32:35;6.80;99.90
41928;DHT22;27616;51.420;6.788;2023-02-11T01:35:01;6.80;99.90
41928;DHT22;27616;51.420;6.788;2023-02-11T01:37:27;6.80;99.90
41928;DHT22;27616;51.420;6.788;2023-02-11T01:39:53;6.70;99.90
41928;DHT22;27616;51.420;6.788;2023-02-11T01:42:21;6.70;99.90
41928;DHT22;27616;51.420;6.788;2023-02-11T01:44:52;6.70;99.90
41928;DHT22;27616;51.420;6.788;2023-02-11T01:47:19;6.80;99.90
41928;DHT22;27616;51.420;6.788;2023-02-11T01:49:51;6.80;99.90
41928;DHT22;27616;51.420;6.788;2023-02-11T01:52:25;6.70;99.90
41928;DHT22;27616;51.420;6.788;2023-02-11T01:54:58;6.80;99.90
41928;DHT22;27616;51.420;6.788;2023-02-11T01:57:46;6.80;99.90
41928;DHT22;27616;51.420;6.788;2023-02-11T02:00:20;6.70;99.90
41928;DHT22;27616;51.420;6.788;2023-02-11T02:05:49;6.70;99.90
41928;DHT22;27616;51.420;6.788;2023-02-11T02:11:00;6.70;99.90
41928;DHT22;27616;51.420;6.788;2023-02-11T02:13:30;6.70;99.90
41928;DHT22;27616;51.420;6.788;2023-02-11T02:16:04;6.60;99.90
41928;DHT22;27616;51.420;6.788;2023-02-11T02:35:48;6.60;99.90
41928;DHT22;27616;51.420;6.788;2023-02-11T02:41:18;6.60;99.90
41928;DHT22;27616;51.420;6.788;2023-02-11T02:43:48;6.60;99.90
41928;DHT22;27616;51.420;6.788;2023-02-11T02:46:33;6.50;99.90
41928;DHT22;27616;51.420;6.788;2023-02-11T02:48:59;6.50;99.90
41928;DHT22;27616;51.420;6.788;2023-02-11T03:02:35;6.40;99.90
41928;DHT22;27616;51.420;6.788;2023-02-11T03:10:46;6.40;99.90
41928;DHT22;27616;51.420;6.788;2023-02-11T03:13:14;6.40;99.90
41928;DHT22;27616;51.420;6.788;2023-02-11T03:15:47;6.40;99.90
41928;DHT22;27616;51.420;6.788;2023-02-11T03:18:17;6.40;99.90
41928;DHT22;27616;51.420;6.788;2023-02-11T03:20:44;6.40;99.90
41928;DHT22;27616;51.420;6.788;2023-02-11T03:25:50;6.40;99.90
41928;DHT22;27616;51.420;6.788;2023-02-11T03:33:59;6.30;99.90
41928;DHT22;27616;51.420;6.788;2023-02-11T03:36:35;6.30;99.90
41928;DHT22;27616;51.420;6.788;2023-02-11T03:39:04;6.30;99.90
41928;DHT22;27616;51.420;6.788;2023-02-11T03:41:30;6.30;99.90
41928;DHT22;27616;51.420;6.788;2023-02-11T03:43:59;6.30;99.90
41928;DHT22;27616;51.420;6.788;2023-02-11T03:46:34;6.30;99.90
41928;DHT22;27616;51.420;6.788;2023-02-11T03:49:05;6.30;99.90
41928;DHT22;27616;51.420;6.788;2023-02-11T03:51:33;6.30;99.90
41928;DHT22;27616;51.420;6.788;2023-02-11T03:54:02;6.30;99.90
41928;DHT22;27616;51.420;6.788;2023-02-11T03:56:35;6.30;99.90
41928;DHT22;27616;51.420;6.788;2023-02-11T03:59:02;6.30;99.90
41928;DHT22;27616;51.420;6.788;2023-02-11T04:01:28;6.30;99.90
41928;DHT22;27616;51.420;6.788;2023-02-11T04:03:53;6.30;99.90
41928;DHT22;27616;51.420;6.788;2023-02-11T04:06:19;6.30;99.90
41928;DHT22;27616;51.420;6.788;2023-02-11T04:08:45;6.30;99.90
41928;DHT22;27616;51.420;6.788;2023-02-11T04:11:10;6.30;99.90
41928;DHT22;27616;51.420;6.788;2023-02-11T04:13:36;6.30;99.90
41928;DHT22;27616;51.420;6.788;2023-02-11T04:16:02;6.20;99.90
41928;DHT22;27616;51.420;6.788;2023-02-11T04:18:28;6.20;99.90
41928;DHT22;27616;51.420;6.788;2023-02-11T04:20:53;6.20;99.90
41928;DHT22;27616;51.420;6.788;2023-02-11T04:23:19;6.20;99.90
41928;DHT22;27616;51.420;6.788;2023-02-11T04:25:45;6.20;99.90
41928;DHT22;27616;51.420;6.788;2023-02-11T04:28:10;6.20;99.90
41928;DHT22;27616;51.420;6.788;2023-02-11T04:30:36;6.20;99.90
41928;DHT22;27616;51.420;6.788;2023-02-11T04:33:02;6.20;99.90
41928;DHT22;27616;51.420;6.788;2023-02-11T04:35:28;6.10;99.90
41928;DHT22;27616;51.420;6.788;2023-02-11T04:37:53;6.10;99.90
41928;DHT22;27616;51.420;6.788;2023-02-11T04:40:19;6.20;99.90
41928;DHT22;27616;51.420;6.788;2023-02-11T04:42:45;6.10;99.90
41928;DHT22;27616;51.420;6.788;2023-02-11T04:45:10;6.20;99.90
41928;DHT22;27616;51.420;6.788;2023-02-11T04:47:36;6.20;99.90
41928;DHT22;27616;51.420;6.788;2023-02-11T04:50:02;6.10;99.90
41928;DHT22;27616;51.420;6.788;2023-02-11T04:52:28;6.10;99.90
41928;DHT22;27616;51.420;6.788;2023-02-11T04:54:54;6.10;99.90
41928;DHT22;27616;51.420;6.788;2023-02-11T04:57:20;6.10;99.90
41928;DHT22;27616;51.420;6.788;2023-02-11T04:59:45;6.10;99.90
41928;DHT22;27616;51.420;6.788;2023-02-11T05:02:11;6.10;99.90
41928;DHT22;27616;51.420;6.788;2023-02-11T05:04:37;6.10;99.90
41928;DHT22;27616;51.420;6.788;2023-02-11T05:07:02;6.20;99.90
41928;DHT22;27616;51.420;6.788;2023-02-11T05:09:28;6.10;99.90
41928;DHT22;27616;51.420;6.788;2023-02-11T05:11:54;6.10;99.90
41928;DHT22;27616;51.420;6.788;2023-02-11T05:14:19;6.10;99.90
41928;DHT22;27616;51.420;6.788;2023-02-11T05:16:45;6.00;99.90
41928;DHT22;27616;51.420;6.788;2023-02-11T05:19:11;6.00;99.90
41928;DHT22;27616;51.420;6.788;2023-02-11T05:21:36;6.00;99.90
41928;DHT22;27616;51.420;6.788;2023-02-11T05:24:02;6.00;99.90
41928;DHT22;27616;51.420;6.788;2023-02-11T05:26:28;5.90;99.90
41928;DHT22;27616;51.420;6.788;2023-02-11T05:28:54;5.90;99.90
41928;DHT22;27616;51.420;6.788;2023-02-11T05:31:20;5.90;99.90
41928;DHT22;27616;51.420;6.788;2023-02-11T05:33:46;5.90;99.90
41928;DHT22;27616;51.420;6.788;2023-02-11T05:36:12;5.90;99.90
41928;DHT22;27616;51.420;6.788;2023-02-11T05:38:39;6.00;99.90
41928;DHT22;27616;51.420;6.788;2023-02-11T05:41:05;5.90;99.90
41928;DHT22;27616;51.420;6.788;2023-02-11T05:43:31;5.90;99.90
41928;DHT22;27616;51.420;6.788;2023-02-11T05:45:56;5.90;99.90
41928;DHT22;27616;51.420;6.788;2023-02-11T05:48:22;5.90;99.90
41928;DHT22;27616;51.420;6.788;2023-02-11T05:50:48;5.90;99.90
41928;DHT22;27616;51.420;6.788;2023-02-11T05:53:14;5.90;99.90
41928;DHT22;27616;51.420;6.788;2023-02-11T05:55:39;5.90;99.90
41928;DHT22;27616;51.420;6.788;2023-02-11T05:58:06;5.90;99.90
41928;DHT22;27616;51.420;6.788;2023-02-11T06:00:32;5.90;99.90
41928;DHT22;27616;51.420;6.788;2023-02-11T06:02:58;5.90;99.90
41928;DHT22;27616;51.420;6.788;2023-02-11T06:05:25;5.90;99.90
41928;DHT22;27616;51.420;6.788;2023-02-11T06:07:50;6.00;99.90
41928;DHT22;27616;51.420;6.788;2023-02-11T06:10:16;6.00;99.90
41928;DHT22;27616;51.420;6.788;2023-02-11T06:12:42;6.00;99.90
41928;DHT22;27616;51.420;6.788;2023-02-11T06:15:09;5.90;99.90
41928;DHT22;27616;51.420;6.788;2023-02-11T06:17:35;5.90;99.90
41928;DHT22;27616;51.420;6.788;2023-02-11T06:20:03;5.90;99.90
41928;DHT22;27616;51.420;6.788;2023-02-11T06:22:30;6.00;99.90
41928;DHT22;27616;51.420;6.788;2023-02-11T06:24:56;6.00;99.90
41928;DHT22;27616;51.420;6.788;2023-02-11T06:27:22;6.00;99.90
41928;DHT22;27616;51.420;6.788;2023-02-11T06:29:48;6.00;99.90
41928;DHT22;27616;51.420;6.788;2023-02-11T06:32:14;6.00;99.90
41928;DHT22;27616;51.420;6.788;2023-02-11T06:34:40;5.90;99.90
41928;DHT22;27616;51.420;6.788;2023-02-11T06:37:05;6.00;99.90
41928;DHT22;27616;51.420;6.788;2023-02-11T06:39:31;5.90;99.90
41928;DHT22;27616;51.420;6.788;2023-02-11T06:41:57;6.00;99.90
41928;DHT22;27616;51.420;6.788;2023-02-11T06:44:23;6.00;99.90
41928;DHT22;27616;51.420;6.788;2023-02-11T06:46:49;6.00;99.90
41928;DHT22;27616;51.420;6.788;2023-02-11T06:49:14;6.00;99.90
41928;DHT22;27616;51.420;6.788;2023-02-11T06:51:40;6.10;99.90
41928;DHT22;27616;51.420;6.788;2023-02-11T06:54:06;6.00;99.90
41928;DHT22;27616;51.420;6.788;2023-02-11T06:56:33;6.00;99.90
41928;DHT22;27616;51.420;6.788;2023-02-11T06:58:59;6.00;99.90
41928;DHT22;27616;51.420;6.788;2023-02-11T07:01:26;6.10;99.90
41928;DHT22;27616;51.420;6.788;2023-02-11T07:03:52;6.00;99.90
41928;DHT22;27616;51.420;6.788;2023-02-11T07:06:22;6.00;99.90
41928;DHT22;27616;51.420;6.788;2023-02-11T07:08:49;6.10;99.90
41928;DHT22;27616;51.420;6.788;2023-02-11T07:11:20;6.10;99.90
41928;DHT22;27616;51.420;6.788;2023-02-11T07:13:49;6.20;99.90
41928;DHT22;27616;51.420;6.788;2023-02-11T07:16:16;6.20;99.90
41928;DHT22;27616;51.420;6.788;2023-02-11T07:18:44;6.10;99.90
41928;DHT22;27616;51.420;6.788;2023-02-11T07:21:15;6.10;99.90
41928;DHT22;27616;51.420;6.788;2023-02-11T07:23:41;6.10;99.90
41928;DHT22;27616;51.420;6.788;2023-02-11T07:26:10;6.20;99.90
41928;DHT22;27616;51.420;6.788;2023-02-11T07:28:37;6.20;99.90
41928;DHT22;27616;51.420;6.788;2023-02-11T07:31:14;6.10;99.90
41928;DHT22;27616;51.420;6.788;2023-02-11T07:33:40;6.10;99.90
41928;DHT22;27616;51.420;6.788;2023-02-11T07:36:07;6.20;99.90
41928;DHT22;27616;51.420;6.788;2023-02-11T07:38:35;6.20;99.90
41928;DHT22;27616;51.420;6.788;2023-02-11T07:41:02;6.20;99.90
41928;DHT22;27616;51.420;6.788;2023-02-11T07:43:29;6.20;99.90
41928;DHT22;27616;51.420;6.788;2023-02-11T07:45:55;6.20;99.90
41928;DHT22;27616;51.420;6.788;2023-02-11T07:48:20;6.20;99.90
41928;DHT22;27616;51.420;6.788;2023-02-11T07:50:46;6.20;99.90
41928;DHT22;27616;51.420;6.788;2023-02-11T07:53:12;6.20;99.90
41928;DHT22;27616;51.420;6.788;2023-02-11T07:55:37;6.30;99.90
41928;DHT22;27616;51.420;6.788;2023-02-11T07:58:03;6.30;99.90
41928;DHT22;27616;51.420;6.788;2023-02-11T08:00:29;6.30;99.90
41928;DHT22;27616;51.420;6.788;2023-02-11T08:02:56;6.30;99.90
41928;DHT22;27616;51.420;6.788;2023-02-11T08:05:22;6.30;99.90
41928;DHT22;27616;51.420;6.788;2023-02-11T08:07:51;6.40;99.90
41928;DHT22;27616;51.420;6.788;2023-02-11T08:10:17;6.40;99.90
41928;DHT22;27616;51.420;6.788;2023-02-11T08:12:42;6.40;99.90
41928;DHT22;27616;51.420;6.788;2023-02-11T08:15:08;6.40;99.90
41928;DHT22;27616;51.420;6.788;2023-02-11T08:17:35;6.40;99.90
41928;DHT22;27616;51.420;6.788;2023-02-11T08:20:01;6.40;99.90
41928;DHT22;27616;51.420;6.788;2023-02-11T08:22:30;6.50;99.90
41928;DHT22;27616;51.420;6.788;2023-02-11T08:24:56;6.40;99.90
41928;DHT22;27616;51.420;6.788;2023-02-11T08:27:23;6.50;99.90
41928;DHT22;27616;51.420;6.788;2023-02-11T08:29:48;6.50;99.90
41928;DHT22;27616;51.420;6.788;2023-02-11T08:32:14;6.50;99.90
41928;DHT22;27616;51.420;6.788;2023-02-11T08:34:40;6.50;99.90
41928;DHT22;27616;51.420;6.788;2023-02-11T08:37:06;6.50;99.90
41928;DHT22;27616;51.420;6.788;2023-02-11T08:39:31;6.50;99.90
41928;DHT22;27616;51.420;6.788;2023-02-11T08:41:57;6.60;99.90
41928;DHT22;27616;51.420;6.788;2023-02-11T08:44:23;6.60;99.90
41928;DHT22;27616;51.420;6.788;2023-02-11T08:46:50;6.70;99.90
41928;DHT22;27616;51.420;6.788;2023-02-11T08:49:16;6.70;99.90
41928;DHT22;27616;51.420;6.788;2023-02-11T08:51:42;6.60;99.90
41928;DHT22;27616;51.420;6.788;2023-02-11T08:54:08;6.60;99.90
41928;DHT22;27616;51.420;6.788;2023-02-11T08:56:35;6.60;99.90
41928;DHT22;27616;51.420;6.788;2023-02-11T08:59:00;6.60;99.90
41928;DHT22;27616;51.420;6.788;2023-02-11T09:01:28;6.80;99.90
41928;DHT22;27616;51.420;6.788;2023-02-11T09:03:55;6.80;99.90
41928;DHT22;27616;51.420;6.788;2023-02-11T09:06:22;6.80;99.90
41928;DHT22;27616;51.420;6.788;2023-02-11T09:08:50;6.90;99.90
41928;DHT22;27616;51.420;6.788;2023-02-11T09:11:19;6.90;99.90
41928;DHT22;27616;51.420;6.788;2023-02-11T09:13:46;6.90;99.90
41928;DHT22;27616;51.420;6.788;2023-02-11T09:16:20;6.90;99.90
41928;DHT22;27616;51.420;6.788;2023-02-11T09:18:46;6.90;99.90
41928;DHT22;27616;51.420;6.788;2023-02-11T09:21:14;7.00;99.90
41928;DHT22;27616;51.420;6.788;2023-02-11T09:23:40;6.90;99.90
41928;DHT22;27616;51.420;6.788;2023-02-11T09:26:13;7.00;99.90
41928;DHT22;27616;51.420;6.788;2023-02-11T09:28:39;6.90;99.90
41928;DHT22;27616;51.420;6.788;2023-02-11T09:31:06;7.00;99.90
41928;DHT22;27616;51.420;6.788;2023-02-11T09:33:32;7.00;99.90
41928;DHT22;27616;51.420;6.788;2023-02-11T09:36:03;7.10;99.90
41928;DHT22;27616;51.420;6.788;2023-02-11T09:38:29;7.10;99.90
41928;DHT22;27616;51.420;6.788;2023-02-11T09:40:55;7.10;99.90
41928;DHT22;27616;51.420;6.788;2023-02-11T09:43:36;7.10;99.90
41928;DHT22;27616;51.420;6.788;2023-02-11T09:46:13;7.10;99.90
41928;DHT22;27616;51.420;6.788;2023-02-11T09:48:41;7.10;99.90
41928;DHT22;27616;51.420;6.788;2023-02-11T09:51:18;7.20;99.90
41928;DHT22;27616;51.420;6.788;2023-02-11T09:53:47;7.20;99.90
41928;DHT22;27616;51.420;6.788;2023-02-11T09:56:16;7.20;99.90
41928;DHT22;27616;51.420;6.788;2023-02-11T09:58:43;7.20;99.90
41928;DHT22;27616;51.420;6.788;2023-02-11T10:07:01;7.40;99.90
41928;DHT22;27616;51.420;6.788;2023-02-11T10:09:45;7.40;99.90
41928;DHT22;27616;51.420;6.788;2023-02-11T10:12:45;7.50;99.90
41928;DHT22;27616;51.420;6.788;2023-02-11T10:21:11;7.50;99.90
41928;DHT22;27616;51.420;6.788;2023-02-11T10:23:44;7.50;99.90
41928;DHT22;27616;51.420;6.788;2023-02-11T10:26:16;7.50;99.90
41928;DHT22;27616;51.420;6.788;2023-02-11T10:28:45;7.60;99.90
41928;DHT22;27616;51.420;6.788;2023-02-11T10:31:23;7.60;99.90
41928;DHT22;27616;51.420;6.788;2023-02-11T10:34:02;7.60;99.90
41928;DHT22;27616;51.420;6.788;2023-02-11T10:36:32;7.60;99.90
41928;DHT22;27616;51.420;6.788;2023-02-11T10:39:20;7.70;99.90
41928;DHT22;27616;51.420;6.788;2023-02-11T10:41:53;7.70;99.90
41928;DHT22;27616;51.420;6.788;2023-02-11T10:44:33;7.70;99.90
41928;DHT22;27616;51.420;6.788;2023-02-11T10:47:03;7.70;99.90
41928;DHT22;27616;51.420;6.788;2023-02-11T10:49:44;7.70;99.90
41928;DHT22;27616;51.420;6.788;2023-02-11T10:59:59;7.80;99.90
41928;DHT22;27616;51.420;6.788;2023-02-11T11:02:29;7.80;99.90
41928;DHT22;27616;51.420;6.788;2023-02-11T11:05:05;7.80;99.90
41928;DHT22;27616;51.420;6.788;2023-02-11T11:07:32;7.80;99.90
41928;DHT22;27616;51.420;6.788;2023-02-11T11:17:42;7.90;99.90
41928;DHT22;27616;51.420;6.788;2023-02-11T11:20:19;7.90;99.90
41928;DHT22;27616;51.420;6.788;2023-02-11T11:22:47;7.80;99.90
41928;DHT22;27616;51.420;6.788;2023-02-11T11:25:22;7.90;99.90
41928;DHT22;27616;51.420;6.788;2023-02-11T11:27:49;7.90;99.90
41928;DHT22;27616;51.420;6.788;2023-02-11T11:30:16;7.90;99.90
41928;DHT22;27616;51.420;6.788;2023-02-11T11:32:42;8.00;99.90
41928;DHT22;27616;51.420;6.788;2023-02-11T11:35:23;7.90;99.90
41928;DHT22;27616;51.420;6.788;2023-02-11T11:37:54;8.00;99.90
41928;DHT22;27616;51.420;6.788;2023-02-11T11:40:32;7.90;99.90
41928;DHT22;27616;51.420;6.788;2023-02-11T11:45:53;7.90;99.90
41928;DHT22;27616;51.420;6.788;2023-02-11T11:48:33;8.00;99.90
41928;DHT22;27616;51.420;6.788;2023-02-11T11:51:04;8.00;99.90
41928;DHT22;27616;51.420;6.788;2023-02-11T11:58:43;8.00;99.90
41928;DHT22;27616;51.420;6.788;2023-02-11T12:01:37;8.00;99.90
41928;DHT22;27616;51.420;6.788;2023-02-11T12:10:00;8.00;99.90
41928;DHT22;27616;51.420;6.788;2023-02-11T12:12:47;8.10;99.90
41928;DHT22;27616;51.420;6.788;2023-02-11T12:26:19;8.40;99.90
41928;DHT22;27616;51.420;6.788;2023-02-11T12:29:11;8.40;99.90
41928;DHT22;27616;51.420;6.788;2023-02-11T12:34:38;8.40;99.90
41928;DHT22;27616;51.420;6.788;2023-02-11T12:37:41;8.40;99.90
41928;DHT22;27616;51.420;6.788;2023-02-11T12:40:37;8.40;99.90
41928;DHT22;27616;51.420;6.788;2023-02-11T12:43:21;8.40;99.90
41928;DHT22;27616;51.420;6.788;2023-02-11T12:54:22;8.40;99.90
41928;DHT22;27616;51.420;6.788;2023-02-11T13:05:24;8.40;99.90
41928;DHT22;27616;51.420;6.788;2023-02-11T13:07:57;8.50;99.90
41928;DHT22;27616;51.420;6.788;2023-02-11T13:10:46;8.50;99.90
41928;DHT22;27616;51.420;6.788;2023-02-11T13:13:20;8.60;99.90
41928;DHT22;27616;51.420;6.788;2023-02-11T13:16:05;8.70;99.90
41928;DHT22;27616;51.420;6.788;2023-02-11T13:18:47;8.70;99.90
41928;DHT22;27616;51.420;6.788;2023-02-11T13:24:08;8.80;99.90
41928;DHT22;27616;51.420;6.788;2023-02-11T13:35:37;8.90;99.90
41928;DHT22;27616;51.420;6.788;2023-02-11T13:38:25;8.90;99.90
41928;DHT22;27616;51.420;6.788;2023-02-11T13:41:21;8.90;99.90
41928;DHT22;27616;51.420;6.788;2023-02-11T13:46:28;8.90;99.90
41928;DHT22;27616;51.420;6.788;2023-02-11T13:48:55;8.90;99.90
41928;DHT22;27616;51.420;6.788;2023-02-11T13:51:41;8.90;99.90
41928;DHT22;27616;51.420;6.788;2023-02-11T13:54:21;8.90;99.90
41928;DHT22;27616;51.420;6.788;2023-02-11T13:59:53;8.90;99.90
41928;DHT22;27616;51.420;6.788;2023-02-11T14:10:53;9.00;99.90
41928;DHT22;27616;51.420;6.788;2023-02-11T14:13:30;9.00;99.90
41928;DHT22;27616;51.420;6.788;2023-02-11T14:16:18;9.00;99.90
41928;DHT22;27616;51.420;6.788;2023-02-11T14:21:22;9.00;99.90
41928;DHT22;27616;51.420;6.788;2023-02-11T14:23:49;9.00;99.90
41928;DHT22;27616;51.420;6.788;2023-02-11T14:37:09;9.40;99.90
41928;DHT22;27616;51.420;6.788;2023-02-11T14:42:23;9.70;99.90
41928;DHT22;27616;51.420;6.788;2023-02-11T14:44:54;9.80;99.90
41928;DHT22;27616;51.420;6.788;2023-02-11T14:47:48;9.90;99.90
41928;DHT22;27616;51.420;6.788;2023-02-11T14:50:32;9.90;99.90
41928;DHT22;27616;51.420;6.788;2023-02-11T14:53:00;10.00;99.90
41928;DHT22;27616;51.420;6.788;2023-02-11T14:58:12;10.00;99.90
41928;DHT22;27616;51.420;6.788;2023-02-11T15:01:04;9.90;99.90
41928;DHT22;27616;51.420;6.788;2023-02-11T15:03:39;9.80;99.90
41928;DHT22;27616;51.420;6.788;2023-02-11T15:06:19;9.70;99.90
41928;DHT22;27616;51.420;6.788;2023-02-11T15:08:51;9.50;99.90
41928;DHT22;27616;51.420;6.788;2023-02-11T15:11:20;9.40;99.90
41928;DHT22;27616;51.420;6.788;2023-02-11T15:13:47;9.40;99.90
41928;DHT22;27616;51.420;6.788;2023-02-11T15:16:17;9.40;99.90
41928;DHT22;27616;51.420;6.788;2023-02-11T15:18:48;9.30;99.90
41928;DHT22;27616;51.420;6.788;2023-02-11T15:21:24;9.30;99.90
41928;DHT22;27616;51.420;6.788;2023-02-11T15:24:02;9.20;99.90
41928;DHT22;27616;51.420;6.788;2023-02-11T15:26:30;9.20;99.90
41928;DHT22;27616;51.420;6.788;2023-02-11T15:28:56;9.10;99.90
41928;DHT22;27616;51.420;6.788;2023-02-11T15:31:25;9.10;99.90
41928;DHT22;27616;51.420;6.788;2023-02-11T15:33:51;9.10;99.90
41928;DHT22;27616;51.420;6.788;2023-02-11T15:36:21;9.10;99.90
41928;DHT22;27616;51.420;6.788;2023-02-11T15:39:14;9.10;99.90
41928;DHT22;27616;51.420;6.788;2023-02-11T15:41:40;9.10;99.90
41928;DHT22;27616;51.420;6.788;2023-02-11T15:44:26;9.10;99.90
41928;DHT22;27616;51.420;6.788;2023-02-11T15:46:52;9.10;99.90
41928;DHT22;27616;51.420;6.788;2023-02-11T15:49:18;9.10;99.90
41928;DHT22;27616;51.420;6.788;2023-02-11T15:51:46;9.10;99.90
41928;DHT22;27616;51.420;6.788;2023-02-11T15:54:19;9.10;99.90
41928;DHT22;27616;51.420;6.788;2023-02-11T15:56:48;8.90;99.90
41928;DHT22;27616;51.420;6.788;2023-02-11T16:01:50;8.90;99.90
41928;DHT22;27616;51.420;6.788;2023-02-11T16:04:21;8.90;99.90
41928;DHT22;27616;51.420;6.788;2023-02-11T16:06:48;8.90;99.90
41928;DHT22;27616;51.420;6.788;2023-02-11T16:14:26;8.90;99.90
41928;DHT22;27616;51.420;6.788;2023-02-11T16:17:03;8.80;99.90
41928;DHT22;27616;51.420;6.788;2023-02-11T16:19:30;8.70;99.90
41928;DHT22;27616;51.420;6.788;2023-02-11T16:21:59;8.70;99.90
41928;DHT22;27616;51.420;6.788;2023-02-11T16:24:26;8.80;99.90
41928;DHT22;27616;51.420;6.788;2023-02-11T16:26:55;8.70;99.90
41928;DHT22;27616;51.420;6.788;2023-02-11T16:29:27;8.80;99.90
41928;DHT22;27616;51.420;6.788;2023-02-11T16:32:05;8.80;99.90
41928;DHT22;27616;51.420;6.788;2023-02-11T16:34:31;8.80;99.90
41928;DHT22;27616;51.420;6.788;2023-02-11T16:36:57;8.70;99.90
41928;DHT22;27616;51.420;6.788;2023-02-11T16:39:23;8.80;99.90
41928;DHT22;27616;51.420;6.788;2023-02-11T16:41:50;8.70;99.90
41928;DHT22;27616;51.420;6.788;2023-02-11T16:44:16;8.70;99.90
41928;DHT22;27616;51.420;6.788;2023-02-11T16:46:42;8.70;99.90
41928;DHT22;27616;51.420;6.788;2023-02-11T16:49:17;8.70;99.90
41928;DHT22;27616;51.420;6.788;2023-02-11T16:51:47;8.70;99.90
41928;DHT22;27616;51.420;6.788;2023-02-11T16:54:15;8.70;99.90
41928;DHT22;27616;51.420;6.788;2023-02-11T16:56:41;8.70;99.90
41928;DHT22;27616;51.420;6.788;2023-02-11T16:59:07;8.70;99.90
41928;DHT22;27616;51.420;6.788;2023-02-11T17:01:34;8.70;99.90
41928;DHT22;27616;51.420;6.788;2023-02-11T17:04:00;8.70;99.90
41928;DHT22;27616;51.420;6.788;2023-02-11T17:06:27;8.70;99.90
41928;DHT22;27616;51.420;6.788;2023-02-11T17:08:52;8.60;99.90
41928;DHT22;27616;51.420;6.788;2023-02-11T17:11:18;8.60;99.90
41928;DHT22;27616;51.420;6.788;2023-02-11T17:13:45;8.60;99.90
41928;DHT22;27616;51.420;6.788;2023-02-11T17:16:21;8.60;99.90
41928;DHT22;27616;51.420;6.788;2023-02-11T17:18:48;8.60;99.90
41928;DHT22;27616;51.420;6.788;2023-02-11T17:21:14;8.60;99.90
41928;DHT22;27616;51.420;6.788;2023-02-11T17:23:40;8.60;99.90
41928;DHT22;27616;51.420;6.788;2023-02-11T17:26:08;8.60;99.90
41928;DHT22;27616;51.420;6.788;2023-02-11T17:28:34;8.60;99.90
41928;DHT22;27616;51.420;6.788;2023-02-11T17:31:00;8.50;99.90
41928;DHT22;27616;51.420;6.788;2023-02-11T17:33:26;8.60;99.90
41928;DHT22;27616;51.420;6.788;2023-02-11T17:35:52;8.50;99.90
41928;DHT22;27616;51.420;6.788;2023-02-11T17:38:17;8.50;99.90
41928;DHT22;27616;51.420;6.788;2023-02-11T17:40:43;8.50;99.90
41928;DHT22;27616;51.420;6.788;2023-02-11T17:43:09;8.50;99.90
41928;DHT22;27616;51.420;6.788;2023-02-11T17:45:39;8.50;99.90
41928;DHT22;27616;51.420;6.788;2023-02-11T17:48:05;8.40;99.90
41928;DHT22;27616;51.420;6.788;2023-02-11T17:50:34;8.40;99.90
41928;DHT22;27616;51.420;6.788;2023-02-11T17:53:00;8.40;99.90
41928;DHT22;27616;51.420;6.788;2023-02-11T17:55:26;8.40;99.90
41928;DHT22;27616;51.420;6.788;2023-02-11T17:57:52;8.40;99.90
41928;DHT22;27616;51.420;6.788;2023-02-11T18:00:18;8.40;99.90
41928;DHT22;27616;51.420;6.788;2023-02-11T18:02:44;8.40;99.90
41928;DHT22;27616;51.420;6.788;2023-02-11T18:05:10;8.40;99.90
41928;DHT22;27616;51.420;6.788;2023-02-11T18:07:35;8.40;99.90
41928;DHT22;27616;51.420;6.788;2023-02-11T18:10:01;8.30;99.90
41928;DHT22;27616;51.420;6.788;2023-02-11T18:12:29;8.30;99.90
41928;DHT22;27616;51.420;6.788;2023-02-11T18:14:55;8.30;99.90
41928;DHT22;27616;51.420;6.788;2023-02-11T18:17:21;8.40;99.90
41928;DHT22;27616;51.420;6.788;2023-02-11T18:19:48;8.30;99.90
41928;DHT22;27616;51.420;6.788;2023-02-11T18:22:14;8.30;99.90
41928;DHT22;27616;51.420;6.788;2023-02-11T18:24:40;8.30;99.90
41928;DHT22;27616;51.420;6.788;2023-02-11T18:27:06;8.30;99.90
41928;DHT22;27616;51.420;6.788;2023-02-11T18:29:32;8.30;99.90
41928;DHT22;27616;51.420;6.788;2023-02-11T18:31:57;8.30;99.90
41928;DHT22;27616;51.420;6.788;2023-02-11T18:34:24;8.30;99.90
41928;DHT22;27616;51.420;6.788;2023-02-11T18:36:50;8.30;99.90
41928;DHT22;27616;51.420;6.788;2023-02-11T18:39:16;8.30;99.90
41928;DHT22;27616;51.420;6.788;2023-02-11T18:41:44;8.30;99.90
41928;DHT22;27616;51.420;6.788;2023-02-11T18:44:11;8.30;99.90
41928;DHT22;27616;51.420;6.788;2023-02-11T18:46:39;8.20;99.90
41928;DHT22;27616;51.420;6.788;2023-02-11T18:49:05;8.30;99.90
41928;DHT22;27616;51.420;6.788;2023-02-11T18:51:31;8.20;99.90
41928;DHT22;27616;51.420;6.788;2023-02-11T18:53:57;8.20;99.90